sensor_id;sensor_type;location;lat;lon;timestamp;pressure;altitude;pressure_sealevel;temperature;humidity
30875;BME280;17581;43.222;27.924;2022-08-19T00:01:52;100203.44;;;25.82;61.64
30875;BME280;17581;43.222;27.924;2022-08-19T00:04:24;100205.34;;;25.81;61.63
30875;BME280;17581;43.222;27.924;2022-08-19T00:06:50;100204.25;;;25.71;61.87
30875;BME280;17581;43.222;27.924;2022-08-19T00:09:18;100205.59;;;25.80;61.56
30875;BME280;17581;43.222;27.924;2022-08-19T00:11:44;100202.84;;;25.80;61.70
30875;BME280;17581;43.222;27.924;2022-08-19T00:14:11;100204.16;;;25.77;61.60
30875;BME280;17581;43.222;27.924;2022-08-19T00:16:38;100200.19;;;25.73;62.00
30875;BME280;17581;43.222;27.924;2022-08-19T00:19:04;100208.94;;;25.82;61.89
30875;BME280;17581;43.222;27.924;2022-08-19T00:21:34;100205.50;;;25.86;61.96
30875;BME280;17581;43.222;27.924;2022-08-19T00:24:06;100209.78;;;25.82;61.97
30875;BME280;17581;43.222;27.924;2022-08-19T00:26:33;100204.06;;;25.84;61.68
30875;BME280;17581;43.222;27.924;2022-08-19T00:28:58;100213.16;;;25.84;61.86
30875;BME280;17581;43.222;27.924;2022-08-19T00:31:26;100179.44;;;25.71;61.56
30875;BME280;17581;43.222;27.924;2022-08-19T00:33:53;100196.72;;;25.78;61.81
30875;BME280;17581;43.222;27.924;2022-08-19T00:36:19;100190.22;;;25.72;61.85
30875;BME280;17581;43.222;27.924;2022-08-19T00:38:44;100212.94;;;25.86;61.62
30875;BME280;17581;43.222;27.924;2022-08-19T00:41:16;100219.03;;;25.88;61.56
30875;BME280;17581;43.222;27.924;2022-08-19T00:46:27;100213.16;;;25.84;61.64
30875;BME280;17581;43.222;27.924;2022-08-19T00:48:53;100199.63;;;25.83;61.79
30875;BME280;17581;43.222;27.924;2022-08-19T00:51:20;100207.16;;;25.87;61.70
30875;BME280;17581;43.222;27.924;2022-08-19T00:53:46;100208.47;;;25.85;61.91
30875;BME280;17581;43.222;27.924;2022-08-19T00:56:12;100197.56;;;25.78;61.84
30875;BME280;17581;43.222;27.924;2022-08-19T00:58:37;100209.56;;;25.84;61.83
30875;BME280;17581;43.222;27.924;2022-08-19T01:01:04;100213.78;;;25.86;61.69
30875;BME280;17581;43.222;27.924;2022-08-19T01:03:29;100205.50;;;25.86;61.44
30875;BME280;17581;43.222;27.924;2022-08-19T01:05:55;100208.09;;;25.81;61.23
30875;BME280;17581;43.222;27.924;2022-08-19T01:08:22;100199.72;;;25.76;61.40
30875;BME280;17581;43.222;27.924;2022-08-19T01:10:51;100205.69;;;25.73;61.55
30875;BME280;17581;43.222;27.924;2022-08-19T01:13:21;100195.59;;;25.67;61.52
30875;BME280;17581;43.222;27.924;2022-08-19T01:15:51;100203.28;;;25.65;61.65
30875;BME280;17581;43.222;27.924;2022-08-19T01:18:19;100211.38;;;25.60;61.90
30875;BME280;17581;43.222;27.924;2022-08-19T01:20:46;100203.56;;;25.57;61.86
30875;BME280;17581;43.222;27.924;2022-08-19T01:23:13;100209.72;;;25.59;61.95
30875;BME280;17581;43.222;27.924;2022-08-19T01:25:48;100202.03;;;25.61;61.92
30875;BME280;17581;43.222;27.924;2022-08-19T01:28:21;100208.16;;;25.63;62.01
30875;BME280;17581;43.222;27.924;2022-08-19T01:30:47;100205.41;;;25.63;61.80
30875;BME280;17581;43.222;27.924;2022-08-19T01:33:13;100202.97;;;25.55;62.11
30875;BME280;17581;43.222;27.924;2022-08-19T01:35:40;100199.97;;;25.57;62.08
30875;BME280;17581;43.222;27.924;2022-08-19T01:38:09;100189.66;;;25.52;62.14
30875;BME280;17581;43.222;27.924;2022-08-19T01:40:43;100197.00;;;25.58;62.19
30875;BME280;17581;43.222;27.924;2022-08-19T01:43:09;100196.53;;;25.61;61.99
30875;BME280;17581;43.222;27.924;2022-08-19T01:45:35;100199.41;;;25.66;61.81
30875;BME280;17581;43.222;27.924;2022-08-19T01:48:02;100199.81;;;25.70;61.69
30875;BME280;17581;43.222;27.924;2022-08-19T01:50:29;100189.50;;;25.65;61.61
30875;BME280;17581;43.222;27.924;2022-08-19T01:52:55;100191.16;;;25.66;61.59
30875;BME280;17581;43.222;27.924;2022-08-19T01:55:21;100189.72;;;25.64;61.83
30875;BME280;17581;43.222;27.924;2022-08-19T01:57:53;100191.41;;;25.65;61.90
30875;BME280;17581;43.222;27.924;2022-08-19T02:00:22;100194.53;;;25.68;61.76
30875;BME280;17581;43.222;27.924;2022-08-19T02:02:48;100176.78;;;25.64;61.40
30875;BME280;17581;43.222;27.924;2022-08-19T02:05:15;100170.69;;;25.62;61.57
30875;BME280;17581;43.222;27.924;2022-08-19T02:07:43;100177.38;;;25.66;61.59
30875;BME280;17581;43.222;27.924;2022-08-19T02:10:13;100185.94;;;25.76;61.57
30875;BME280;17581;43.222;27.924;2022-08-19T02:12:39;100185.09;;;25.76;61.40
30875;BME280;17581;43.222;27.924;2022-08-19T02:15:05;100183.19;;;25.76;61.35
30875;BME280;17581;43.222;27.924;2022-08-19T02:17:31;100172.38;;;25.75;61.20
30875;BME280;17581;43.222;27.924;2022-08-19T02:19:57;100171.41;;;25.69;61.35
30875;BME280;17581;43.222;27.924;2022-08-19T02:22:24;100169.75;;;25.68;61.55
30875;BME280;17581;43.222;27.924;2022-08-19T02:24:51;100170.94;;;25.72;61.44
30875;BME280;17581;43.222;27.924;2022-08-19T02:27:16;100166.66;;;25.76;61.63
30875;BME280;17581;43.222;27.924;2022-08-19T02:29:43;100167.13;;;25.73;61.52
30875;BME280;17581;43.222;27.924;2022-08-19T02:32:08;100181.28;;;25.77;61.56
30875;BME280;17581;43.222;27.924;2022-08-19T02:34:34;100175.97;;;25.75;61.47
30875;BME280;17581;43.222;27.924;2022-08-19T02:36:59;100171.78;;;25.73;61.55
30875;BME280;17581;43.222;27.924;2022-08-19T02:39:25;100166.53;;;25.71;61.46
30875;BME280;17581;43.222;27.924;2022-08-19T02:41:51;100175.25;;;25.68;61.71
30875;BME280;17581;43.222;27.924;2022-08-19T02:44:17;100176.91;;;25.69;61.70
30875;BME280;17581;43.222;27.924;2022-08-19T02:46:45;100170.22;;;25.65;61.89
30875;BME280;17581;43.222;27.924;2022-08-19T02:49:11;100161.78;;;25.60;62.18
30875;BME280;17581;43.222;27.924;2022-08-19T02:51:43;100174.03;;;25.64;62.27
30875;BME280;17581;43.222;27.924;2022-08-19T02:54:10;100174.03;;;25.64;62.42
30875;BME280;17581;43.222;27.924;2022-08-19T02:56:37;100177.25;;;25.61;62.73
30875;BME280;17581;43.222;27.924;2022-08-19T02:59:03;100181.06;;;25.60;62.80
30875;BME280;17581;43.222;27.924;2022-08-19T03:01:36;100170.41;;;25.52;62.85
30875;BME280;17581;43.222;27.924;2022-08-19T03:04:04;100182.38;;;25.58;62.73
30875;BME280;17581;43.222;27.924;2022-08-19T03:06:31;100176.75;;;25.53;62.96
30875;BME280;17581;43.222;27.924;2022-08-19T03:08:57;100179.13;;;25.49;63.30
30875;BME280;17581;43.222;27.924;2022-08-19T03:11:28;100190.78;;;25.44;63.78
30875;BME280;17581;43.222;27.924;2022-08-19T03:13:55;100182.00;;;25.36;63.95
30875;BME280;17581;43.222;27.924;2022-08-19T03:16:22;100178.19;;;25.37;63.94
30875;BME280;17581;43.222;27.924;2022-08-19T03:18:49;100196.88;;;25.35;64.09
30875;BME280;17581;43.222;27.924;2022-08-19T03:21:22;100189.41;;;25.35;64.18
30875;BME280;17581;43.222;27.924;2022-08-19T03:23:49;100179.28;;;25.18;64.47
30875;BME280;17581;43.222;27.924;2022-08-19T03:26:15;100200.38;;;25.24;64.71
30875;BME280;17581;43.222;27.924;2022-08-19T03:28:42;100193.03;;;25.18;64.94
30875;BME280;17581;43.222;27.924;2022-08-19T03:31:11;100196.84;;;25.17;64.92
30875;BME280;17581;43.222;27.924;2022-08-19T03:33:38;100214.00;;;25.19;64.86
30875;BME280;17581;43.222;27.924;2022-08-19T03:36:08;100209.41;;;25.13;65.22
30875;BME280;17581;43.222;27.924;2022-08-19T03:38:39;100218.28;;;25.15;64.95
30875;BME280;17581;43.222;27.924;2022-08-19T03:41:07;100211.06;;;25.14;65.08
30875;BME280;17581;43.222;27.924;2022-08-19T03:43:35;100227.22;;;25.10;65.10
30875;BME280;17581;43.222;27.924;2022-08-19T03:46:12;100223.00;;;25.08;65.36
30875;BME280;17581;43.222;27.924;2022-08-19T03:48:39;100226.84;;;25.07;65.28
30875;BME280;17581;43.222;27.924;2022-08-19T03:51:06;100226.84;;;25.07;65.35
30875;BME280;17581;43.222;27.924;2022-08-19T03:53:33;100221.09;;;25.08;65.01
30875;BME280;17581;43.222;27.924;2022-08-19T03:56:00;100241.34;;;25.14;64.72
30875;BME280;17581;43.222;27.924;2022-08-19T03:58:26;100236.94;;;25.13;65.00
30875;BME280;17581;43.222;27.924;2022-08-19T04:00:55;100229.75;;;25.12;64.81
30875;BME280;17581;43.222;27.924;2022-08-19T04:03:22;100239.00;;;25.17;64.63
30875;BME280;17581;43.222;27.924;2022-08-19T04:05:47;100225.47;;;25.16;64.57
30875;BME280;17581;43.222;27.924;2022-08-19T04:08:13;100238.06;;;25.23;64.40
30875;BME280;17581;43.222;27.924;2022-08-19T04:10:47;100232.63;;;25.17;64.62
30875;BME280;17581;43.222;27.924;2022-08-19T04:13:14;100239.31;;;25.27;64.39
30875;BME280;17581;43.222;27.924;2022-08-19T04:15:41;100238.59;;;25.32;64.20
30875;BME280;17581;43.222;27.924;2022-08-19T04:18:08;100240.94;;;25.35;64.23
30875;BME280;17581;43.222;27.924;2022-08-19T04:20:45;100237.47;;;25.39;63.91
30875;BME280;17581;43.222;27.924;2022-08-19T04:23:12;100234.50;;;25.41;63.66
30875;BME280;17581;43.222;27.924;2022-08-19T04:25:40;100246.25;;;25.48;63.81
30875;BME280;17581;43.222;27.924;2022-08-19T04:28:07;100244.59;;;25.47;63.35
30875;BME280;17581;43.222;27.924;2022-08-19T04:30:44;100253.91;;;25.46;63.54
30875;BME280;17581;43.222;27.924;2022-08-19T04:33:11;100258.97;;;25.49;63.69
30875;BME280;17581;43.222;27.924;2022-08-19T04:35:40;100262.97;;;25.53;63.63
30875;BME280;17581;43.222;27.924;2022-08-19T04:38:06;100258.97;;;25.49;63.71
30875;BME280;17581;43.222;27.924;2022-08-19T04:40:32;100249.25;;;25.47;63.75
30875;BME280;17581;43.222;27.924;2022-08-19T04:43:17;100265.53;;;25.48;63.93
30875;BME280;17581;43.222;27.924;2022-08-19T04:45:43;100259.50;;;25.39;63.97
30875;BME280;17581;43.222;27.924;2022-08-19T04:48:10;100262.16;;;25.46;63.85
30875;BME280;17581;43.222;27.924;2022-08-19T04:50:35;100252.69;;;25.42;64.10
30875;BME280;17581;43.222;27.924;2022-08-19T04:53:01;100262.75;;;25.48;64.10
30875;BME280;17581;43.222;27.924;2022-08-19T04:55:26;100256.84;;;25.51;63.71
30875;BME280;17581;43.222;27.924;2022-08-19T04:57:53;100271.22;;;25.53;63.85
30875;BME280;17581;43.222;27.924;2022-08-19T05:00:18;100264.03;;;25.52;63.87
30875;BME280;17581;43.222;27.924;2022-08-19T05:02:44;100280.63;;;25.64;63.79
30875;BME280;17581;43.222;27.924;2022-08-19T05:05:09;100276.09;;;25.69;63.72
30875;BME280;17581;43.222;27.924;2022-08-19T05:07:35;100269.06;;;25.73;63.76
30875;BME280;17581;43.222;27.924;2022-08-19T05:10:03;100254.91;;;25.70;63.78
30875;BME280;17581;43.222;27.924;2022-08-19T05:12:30;100269.34;;;25.83;63.46
30875;BME280;17581;43.222;27.924;2022-08-19T05:14:56;100271.19;;;25.89;63.45
30875;BME280;17581;43.222;27.924;2022-08-19T05:17:22;100265.66;;;25.89;63.41
30875;BME280;17581;43.222;27.924;2022-08-19T05:19:47;100264.97;;;26.06;62.77
30875;BME280;17581;43.222;27.924;2022-08-19T05:22:31;100265.13;;;26.11;61.94
30875;BME280;17581;43.222;27.924;2022-08-19T05:24:58;100255.13;;;26.16;61.55
30875;BME280;17581;43.222;27.924;2022-08-19T05:27:25;100266.28;;;26.33;61.61
30875;BME280;17581;43.222;27.924;2022-08-19T05:29:50;100256.00;;;26.40;61.26
30875;BME280;17581;43.222;27.924;2022-08-19T05:32:16;100237.44;;;26.47;60.62
30875;BME280;17581;43.222;27.924;2022-08-19T05:34:41;100244.66;;;26.60;60.38
30875;BME280;17581;43.222;27.924;2022-08-19T05:37:08;100243.59;;;26.72;59.79
30875;BME280;17581;43.222;27.924;2022-08-19T05:39:35;100244.78;;;26.76;59.51
30875;BME280;17581;43.222;27.924;2022-08-19T05:42:07;100243.38;;;26.85;59.35
30875;BME280;17581;43.222;27.924;2022-08-19T05:44:36;100241.34;;;26.92;59.01
30875;BME280;17581;43.222;27.924;2022-08-19T05:47:04;100249.50;;;26.99;58.61
30875;BME280;17581;43.222;27.924;2022-08-19T05:49:30;100243.84;;;27.06;58.47
30875;BME280;17581;43.222;27.924;2022-08-19T05:51:57;100243.09;;;27.10;58.53
30875;BME280;17581;43.222;27.924;2022-08-19T05:54:25;100236.88;;;27.15;58.50
30875;BME280;17581;43.222;27.924;2022-08-19T05:56:52;100230.38;;;27.21;58.05
30875;BME280;17581;43.222;27.924;2022-08-19T05:59:18;100233.03;;;27.27;57.86
30875;BME280;17581;43.222;27.924;2022-08-19T06:01:47;100235.13;;;27.37;58.15
30875;BME280;17581;43.222;27.924;2022-08-19T06:04:16;100239.75;;;27.43;57.53
30875;BME280;17581;43.222;27.924;2022-08-19T06:06:45;100225.66;;;27.44;57.77
30875;BME280;17581;43.222;27.924;2022-08-19T06:09:12;100226.03;;;27.48;57.46
30875;BME280;17581;43.222;27.924;2022-08-19T06:11:44;100219.53;;;27.54;57.56
30875;BME280;17581;43.222;27.924;2022-08-19T06:14:16;100230.16;;;27.62;57.10
30875;BME280;17581;43.222;27.924;2022-08-19T06:16:43;100228.13;;;27.69;56.96
30875;BME280;17581;43.222;27.924;2022-08-19T06:19:12;100229.13;;;27.80;56.84
30875;BME280;17581;43.222;27.924;2022-08-19T06:21:40;100225.06;;;27.82;56.75
30875;BME280;17581;43.222;27.924;2022-08-19T06:24:09;100229.34;;;27.90;56.46
30875;BME280;17581;43.222;27.924;2022-08-19T06:26:37;100221.16;;;27.95;56.16
30875;BME280;17581;43.222;27.924;2022-08-19T06:29:06;100217.63;;;27.99;56.09
30875;BME280;17581;43.222;27.924;2022-08-19T06:31:34;100220.91;;;27.96;56.08
30875;BME280;17581;43.222;27.924;2022-08-19T06:34:04;100223.97;;;28.12;56.07
30875;BME280;17581;43.222;27.924;2022-08-19T06:36:34;100207.78;;;28.03;55.79
30875;BME280;17581;43.222;27.924;2022-08-19T06:39:05;100228.34;;;28.24;55.63
30875;BME280;17581;43.222;27.924;2022-08-19T06:41:34;100231.47;;;28.28;55.37
30875;BME280;17581;43.222;27.924;2022-08-19T06:44:03;100232.13;;;28.35;55.42
30875;BME280;17581;43.222;27.924;2022-08-19T06:46:30;100229.97;;;28.37;55.29
30875;BME280;17581;43.222;27.924;2022-08-19T06:48:56;100230.66;;;28.44;54.57
30875;BME280;17581;43.222;27.924;2022-08-19T06:51:22;100232.31;;;28.45;54.47
30875;BME280;17581;43.222;27.924;2022-08-19T06:53:50;100226.75;;;28.45;54.54
30875;BME280;17581;43.222;27.924;2022-08-19T06:56:20;100209.59;;;28.43;54.42
30875;BME280;17581;43.222;27.924;2022-08-19T06:58:46;100237.00;;;28.61;54.27
30875;BME280;17581;43.222;27.924;2022-08-19T07:01:13;100222.66;;;28.64;53.90
30875;BME280;17581;43.222;27.924;2022-08-19T07:03:39;100233.94;;;28.74;53.84
30875;BME280;17581;43.222;27.924;2022-08-19T07:06:11;100231.81;;;28.81;53.67
30875;BME280;17581;43.222;27.924;2022-08-19T07:08:41;100229.13;;;28.86;53.41
30875;BME280;17581;43.222;27.924;2022-08-19T07:11:10;100231.97;;;28.91;53.56
30875;BME280;17581;43.222;27.924;2022-08-19T07:13:39;100218.47;;;28.95;53.39
30875;BME280;17581;43.222;27.924;2022-08-19T07:16:07;100219.69;;;29.04;53.47
30875;BME280;17581;43.222;27.924;2022-08-19T07:18:34;100227.56;;;29.12;52.56
30875;BME280;17581;43.222;27.924;2022-08-19T07:21:09;100219.00;;;29.13;52.39
30875;BME280;17581;43.222;27.924;2022-08-19T07:23:35;100211.78;;;29.12;52.25
30875;BME280;17581;43.222;27.924;2022-08-19T07:26:25;100214.47;;;29.24;52.28
30875;BME280;17581;43.222;27.924;2022-08-19T07:28:51;100213.19;;;29.32;51.76
30875;BME280;17581;43.222;27.924;2022-08-19T07:31:20;100210.75;;;29.35;52.28
30875;BME280;17581;43.222;27.924;2022-08-19T07:33:47;100217.75;;;29.43;51.95
30875;BME280;17581;43.222;27.924;2022-08-19T07:36:16;100213.09;;;29.48;51.91
30875;BME280;17581;43.222;27.924;2022-08-19T07:38:45;100224.59;;;29.57;51.78
30875;BME280;17581;43.222;27.924;2022-08-19T07:41:16;100217.50;;;29.66;51.86
30875;BME280;17581;43.222;27.924;2022-08-19T07:43:42;100211.94;;;29.66;51.61
30875;BME280;17581;43.222;27.924;2022-08-19T07:46:09;100231.53;;;29.81;50.28
30875;BME280;17581;43.222;27.924;2022-08-19T07:48:35;100212.19;;;29.86;50.13
30875;BME280;17581;43.222;27.924;2022-08-19T07:51:05;100225.59;;;29.94;50.23
30875;BME280;17581;43.222;27.924;2022-08-19T07:53:31;100221.19;;;29.98;50.02
30875;BME280;17581;43.222;27.924;2022-08-19T07:55:59;100206.03;;;30.06;49.76
30875;BME280;17581;43.222;27.924;2022-08-19T07:58:28;100199.69;;;30.10;49.69
30875;BME280;17581;43.222;27.924;2022-08-19T08:00:54;100193.91;;;30.17;49.81
30875;BME280;17581;43.222;27.924;2022-08-19T08:03:20;100206.53;;;30.30;49.76
30875;BME280;17581;43.222;27.924;2022-08-19T08:06:06;100210.00;;;30.42;48.22
30875;BME280;17581;43.222;27.924;2022-08-19T08:08:51;100196.44;;;30.45;47.90
30875;BME280;17581;43.222;27.924;2022-08-19T08:11:35;100192.81;;;30.45;47.84
30875;BME280;17581;43.222;27.924;2022-08-19T08:14:03;100193.44;;;30.57;47.23
30875;BME280;17581;43.222;27.924;2022-08-19T08:16:33;100191.84;;;30.61;46.94
30875;BME280;17581;43.222;27.924;2022-08-19T08:18:58;100183.22;;;30.62;47.51
30875;BME280;17581;43.222;27.924;2022-08-19T08:21:24;100191.88;;;30.71;47.56
30875;BME280;17581;43.222;27.924;2022-08-19T08:23:50;100196.41;;;30.82;46.14
30875;BME280;17581;43.222;27.924;2022-08-19T08:26:16;100196.75;;;30.91;46.28
30875;BME280;17581;43.222;27.924;2022-08-19T08:28:42;100195.16;;;31.00;46.46
30875;BME280;17581;43.222;27.924;2022-08-19T08:31:07;100186.84;;;31.05;45.47
30875;BME280;17581;43.222;27.924;2022-08-19T08:33:34;100189.41;;;31.16;45.17
30875;BME280;17581;43.222;27.924;2022-08-19T08:36:06;100166.63;;;31.14;44.71
30875;BME280;17581;43.222;27.924;2022-08-19T08:38:32;100180.31;;;31.31;44.85
30875;BME280;17581;43.222;27.924;2022-08-19T08:43:54;100178.13;;;31.43;44.91
30875;BME280;17581;43.222;27.924;2022-08-19T08:46:44;100170.69;;;31.49;44.85
30875;BME280;17581;43.222;27.924;2022-08-19T08:52:05;100173.50;;;31.64;43.83
30875;BME280;17581;43.222;27.924;2022-08-19T08:54:44;100175.19;;;31.65;43.18
30875;BME280;17581;43.222;27.924;2022-08-19T08:57:15;100185.75;;;31.78;42.71
30875;BME280;17581;43.222;27.924;2022-08-19T08:59:45;100174.38;;;31.85;42.77
30875;BME280;17581;43.222;27.924;2022-08-19T09:02:16;100174.13;;;31.96;42.96
30875;BME280;17581;43.222;27.924;2022-08-19T09:04:41;100166.38;;;32.08;43.32
30875;BME280;17581;43.222;27.924;2022-08-19T09:07:11;100179.75;;;32.21;42.82
30875;BME280;17581;43.222;27.924;2022-08-19T09:09:45;100165.00;;;32.26;41.92
30875;BME280;17581;43.222;27.924;2022-08-19T09:15:11;100190.59;;;32.28;41.71
30875;BME280;17581;43.222;27.924;2022-08-19T09:17:37;100177.50;;;32.33;41.55
30875;BME280;17581;43.222;27.924;2022-08-19T09:20:20;100170.00;;;32.44;41.71
30875;BME280;17581;43.222;27.924;2022-08-19T09:22:45;100181.41;;;32.53;41.77
30875;BME280;17581;43.222;27.924;2022-08-19T09:25:14;100184.75;;;32.55;41.06
30875;BME280;17581;43.222;27.924;2022-08-19T09:27:41;100171.41;;;32.62;41.19
30875;BME280;17581;43.222;27.924;2022-08-19T09:30:09;100178.09;;;32.66;41.53
30875;BME280;17581;43.222;27.924;2022-08-19T09:32:35;100192.00;;;32.71;40.85
30875;BME280;17581;43.222;27.924;2022-08-19T09:35:01;100194.25;;;32.69;40.42
30875;BME280;17581;43.222;27.924;2022-08-19T09:37:27;100182.25;;;32.73;40.89
30875;BME280;17581;43.222;27.924;2022-08-19T09:39:53;100191.13;;;32.75;40.81
30875;BME280;17581;43.222;27.924;2022-08-19T09:42:19;100195.88;;;32.80;40.37
30875;BME280;17581;43.222;27.924;2022-08-19T09:44:45;100195.06;;;32.69;40.32
30875;BME280;17581;43.222;27.924;2022-08-19T09:47:13;100192.03;;;32.66;40.13
30875;BME280;17581;43.222;27.924;2022-08-19T09:49:39;100170.84;;;32.65;40.37
30875;BME280;17581;43.222;27.924;2022-08-19T09:52:07;100180.28;;;32.79;39.93
30875;BME280;17581;43.222;27.924;2022-08-19T09:54:34;100174.97;;;32.93;40.06
30875;BME280;17581;43.222;27.924;2022-08-19T09:57:00;100178.84;;;33.12;39.97
30875;BME280;17581;43.222;27.924;2022-08-19T09:59:26;100166.28;;;33.04;39.82
30875;BME280;17581;43.222;27.924;2022-08-19T10:01:51;100177.72;;;33.08;39.46
30875;BME280;17581;43.222;27.924;2022-08-19T10:04:17;100174.38;;;33.11;39.34
30875;BME280;17581;43.222;27.924;2022-08-19T10:06:42;100171.28;;;33.17;39.18
30875;BME280;17581;43.222;27.924;2022-08-19T10:09:09;100188.47;;;33.45;39.30
30875;BME280;17581;43.222;27.924;2022-08-19T10:11:38;100180.06;;;33.60;38.20
30875;BME280;17581;43.222;27.924;2022-08-19T10:14:04;100186.72;;;33.64;37.85
30875;BME280;17581;43.222;27.924;2022-08-19T10:16:33;100195.06;;;33.59;37.93
30875;BME280;17581;43.222;27.924;2022-08-19T10:18:59;100190.38;;;33.59;38.34
30875;BME280;17581;43.222;27.924;2022-08-19T10:21:31;100193.38;;;33.73;38.63
30875;BME280;17581;43.222;27.924;2022-08-19T10:23:58;100199.50;;;33.75;38.37
30875;BME280;17581;43.222;27.924;2022-08-19T10:26:27;100190.59;;;33.73;38.59
30875;BME280;17581;43.222;27.924;2022-08-19T10:28:54;100183.91;;;33.69;37.41
30875;BME280;17581;43.222;27.924;2022-08-19T10:31:30;100175.00;;;33.67;36.42
30875;BME280;17581;43.222;27.924;2022-08-19T10:33:56;100177.13;;;33.85;37.02
30875;BME280;17581;43.222;27.924;2022-08-19T10:36:28;100178.13;;;33.99;37.29
30875;BME280;17581;43.222;27.924;2022-08-19T10:38:56;100183.38;;;34.11;36.88
30875;BME280;17581;43.222;27.924;2022-08-19T10:41:26;100180.91;;;33.99;36.31
30875;BME280;17581;43.222;27.924;2022-08-19T10:43:54;100197.00;;;34.17;36.54
30875;BME280;17581;43.222;27.924;2022-08-19T10:46:21;100192.41;;;34.31;35.52
30875;BME280;17581;43.222;27.924;2022-08-19T10:48:48;100193.75;;;34.39;35.67
30875;BME280;17581;43.222;27.924;2022-08-19T10:51:15;100182.00;;;34.42;35.87
30875;BME280;17581;43.222;27.924;2022-08-19T10:54:00;100191.31;;;34.32;35.12
30875;BME280;17581;43.222;27.924;2022-08-19T10:56:27;100200.66;;;34.46;35.19
30875;BME280;17581;43.222;27.924;2022-08-19T10:59:11;100194.16;;;34.61;34.74
30875;BME280;17581;43.222;27.924;2022-08-19T11:01:39;100204.03;;;34.77;34.13
30875;BME280;17581;43.222;27.924;2022-08-19T11:04:05;100217.97;;;34.49;44.68
30875;BME280;17581;43.222;27.924;2022-08-19T11:06:33;100225.25;;;34.11;48.16
30875;BME280;17581;43.222;27.924;2022-08-19T11:08:59;100215.88;;;33.12;50.56
30875;BME280;17581;43.222;27.924;2022-08-19T11:11:26;100220.38;;;32.98;50.83
30875;BME280;17581;43.222;27.924;2022-08-19T11:13:52;100211.50;;;32.61;51.77
30875;BME280;17581;43.222;27.924;2022-08-19T11:16:22;100202.56;;;32.23;53.81
30875;BME280;17581;43.222;27.924;2022-08-19T11:18:51;100192.53;;;32.12;53.41
30875;BME280;17581;43.222;27.924;2022-08-19T11:21:19;100208.88;;;31.94;53.84
30875;BME280;17581;43.222;27.924;2022-08-19T11:23:47;100211.38;;;31.80;53.71
30875;BME280;17581;43.222;27.924;2022-08-19T11:26:14;100215.81;;;31.71;55.41
30875;BME280;17581;43.222;27.924;2022-08-19T11:28:41;100214.72;;;31.82;57.71
30875;BME280;17581;43.222;27.924;2022-08-19T11:31:18;100220.22;;;31.62;59.47
30875;BME280;17581;43.222;27.924;2022-08-19T11:33:44;100200.72;;;31.52;59.71
30875;BME280;17581;43.222;27.924;2022-08-19T11:36:11;100203.50;;;31.52;58.33
30875;BME280;17581;43.222;27.924;2022-08-19T11:38:37;100196.72;;;31.38;57.78
30875;BME280;17581;43.222;27.924;2022-08-19T11:41:06;100217.69;;;31.55;58.47
30875;BME280;17581;43.222;27.924;2022-08-19T11:43:36;100208.44;;;31.45;58.70
30875;BME280;17581;43.222;27.924;2022-08-19T11:46:06;100210.75;;;31.53;57.88
30875;BME280;17581;43.222;27.924;2022-08-19T11:48:33;100211.19;;;31.40;56.86
30875;BME280;17581;43.222;27.924;2022-08-19T11:50:58;100209.06;;;31.52;55.99
30875;BME280;17581;43.222;27.924;2022-08-19T11:53:24;100215.16;;;31.54;55.27
30875;BME280;17581;43.222;27.924;2022-08-19T11:55:52;100207.03;;;31.47;56.28
30875;BME280;17581;43.222;27.924;2022-08-19T11:58:21;100201.78;;;31.46;56.55
30875;BME280;17581;43.222;27.924;2022-08-19T12:00:47;100211.75;;;31.37;57.21
30875;BME280;17581;43.222;27.924;2022-08-19T12:03:13;100208.16;;;31.46;55.53
30875;BME280;17581;43.222;27.924;2022-08-19T12:05:40;100203.50;;;31.52;55.84
30875;BME280;17581;43.222;27.924;2022-08-19T12:08:06;100204.34;;;31.52;55.74
30875;BME280;17581;43.222;27.924;2022-08-19T12:10:33;100200.47;;;31.58;56.79
30875;BME280;17581;43.222;27.924;2022-08-19T12:12:59;100197.31;;;31.45;56.76
30875;BME280;17581;43.222;27.924;2022-08-19T12:15:25;100208.44;;;31.45;56.67
30875;BME280;17581;43.222;27.924;2022-08-19T12:17:52;100213.22;;;31.54;56.04
30875;BME280;17581;43.222;27.924;2022-08-19T12:20:20;100209.38;;;31.65;56.30
30875;BME280;17581;43.222;27.924;2022-08-19T12:22:45;100190.44;;;31.52;56.84
30875;BME280;17581;43.222;27.924;2022-08-19T12:25:11;100198.53;;;31.64;55.09
30875;BME280;17581;43.222;27.924;2022-08-19T12:27:38;100204.09;;;31.64;55.96
30875;BME280;17581;43.222;27.924;2022-08-19T12:30:05;100201.91;;;31.71;56.23
30875;BME280;17581;43.222;27.924;2022-08-19T12:32:33;100205.81;;;31.85;55.77
30875;BME280;17581;43.222;27.924;2022-08-19T12:34:58;100208.56;;;31.75;55.25
30875;BME280;17581;43.222;27.924;2022-08-19T12:37:24;100202.44;;;31.78;55.35
30875;BME280;17581;43.222;27.924;2022-08-19T12:39:49;100211.94;;;31.87;55.86
30875;BME280;17581;43.222;27.924;2022-08-19T12:42:15;100199.41;;;31.79;55.35
30875;BME280;17581;43.222;27.924;2022-08-19T12:44:42;100208.00;;;31.78;55.64
30875;BME280;17581;43.222;27.924;2022-08-19T12:47:09;100209.44;;;31.96;54.94
30875;BME280;17581;43.222;27.924;2022-08-19T12:49:35;100203.59;;;32.02;54.42
30875;BME280;17581;43.222;27.924;2022-08-19T12:52:04;100195.88;;;32.04;53.88
30875;BME280;17581;43.222;27.924;2022-08-19T12:54:30;100197.00;;;32.18;54.64
30875;BME280;17581;43.222;27.924;2022-08-19T12:56:57;100210.91;;;32.23;54.08